Time;durP1;ratioP1;P1;durP2;ratioP2;P2;SDS_P1;SDS_P2;PMS_P1;PMS_P2;Temp;Humidity;BMP_temperature;BMP_pressure;BME280_temperature;BME280_humidity;BME280_pressure;Samples;Min_cycle;Max_cycle;Signal;HPM_P1;HPM_P2
2021/12/24 00:03:44;;;;;;;38.53;11.47;;;;;4.70;95476.00;;;;8331714;28;20249;-72
2021/12/24 00:07:47;;;;;;;37.07;10.73;;;;;4.70;95474.00;;;;8332279;28;20223;-72
2021/12/24 00:11:51;;;;;;;31.40;11.20;;;;;4.80;95460.00;;;;8331376;28;20216;-72
2021/12/24 00:16:05;;;;;;;26.40;10.17;;;;;4.90;95465.00;;;;8331916;28;20216;-72
2021/12/24 00:21:25;;;;;;;33.37;11.07;;;;;5.00;95465.00;;;;8330502;28;20578;-72
2021/12/24 00:38:08;;;;;;;31.43;10.67;;;;;5.20;95433.00;;;;8331087;28;20241;-72
2021/12/24 00:42:13;;;;;;;31.67;10.33;;;;;5.30;95429.00;;;;8330479;28;20295;-72
2021/12/24 00:46:47;;;;;;;29.20;9.10;;;;;5.30;95418.00;;;;8330740;28;20224;-72
2021/12/24 00:51:06;;;;;;;35.20;11.03;;;;;5.40;95407.00;;;;8329843;28;20239;-72
2021/12/24 00:55:11;;;;;;;22.33;8.83;;;;;5.40;95408.00;;;;8329965;28;20254;-72
2021/12/24 00:59:45;;;;;;;26.27;9.33;;;;;5.40;95390.00;;;;8330382;28;20220;-72
2021/12/24 01:03:48;;;;;;;33.00;10.00;;;;;5.50;95394.00;;;;8329172;28;20706;-72
2021/12/24 01:08:25;;;;;;;27.37;9.00;;;;;5.50;95389.00;;;;8330537;28;20657;-72
2021/12/24 01:12:29;;;;;;;24.47;8.50;;;;;5.60;95381.00;;;;8329515;28;20527;-72
2021/12/24 01:16:39;;;;;;;25.50;9.57;;;;;5.60;95368.00;;;;8329818;28;20245;-72
2021/12/24 01:20:46;;;;;;;27.57;9.13;;;;;5.50;95383.00;;;;8329177;28;20614;-72
2021/12/24 01:24:58;;;;;;;30.73;9.50;;;;;5.50;95374.00;;;;8329207;28;20232;-72
2021/12/24 01:29:31;;;;;;;25.20;9.07;;;;;5.50;95379.00;;;;8328903;28;20267;-72
2021/12/24 01:37:57;;;;;;;23.97;9.10;;;;;5.70;95371.00;;;;8329167;28;20224;-73
2021/12/24 01:46:37;;;;;;;29.87;9.87;;;;;5.80;95361.00;;;;8328949;28;20271;-73
2021/12/24 01:50:43;;;;;;;21.80;7.80;;;;;5.90;95366.00;;;;8328677;28;20224;-73
2021/12/24 01:54:47;;;;;;;25.87;8.80;;;;;5.90;95367.00;;;;8328475;28;20243;-75
2021/12/24 01:59:24;;;;;;;24.10;8.83;;;;;5.90;95370.00;;;;8328967;28;20267;-75
2021/12/24 02:03:28;;;;;;;24.33;9.40;;;;;5.90;95363.00;;;;8328572;28;20248;-75
2021/12/24 02:07:32;;;;;;;24.40;8.37;;;;;5.90;95369.00;;;;8328543;28;20228;-76
2021/12/24 02:11:37;;;;;;;27.20;9.40;;;;;5.80;95368.00;;;;8328463;28;20241;-76
2021/12/24 02:16:19;;;;;;;24.80;8.93;;;;;5.70;95356.00;;;;8327952;28;20291;-77
2021/12/24 02:29:24;;;;;;;24.30;9.70;;;;;5.70;95330.00;;;;8328678;28;20221;-80
2021/12/24 02:33:27;;;;;;;27.80;9.57;;;;;5.80;95323.00;;;;8360261;28;20216;-80
2021/12/24 02:37:32;;;;;;;25.30;8.37;;;;;5.90;95326.00;;;;8361291;28;20248;-78
2021/12/24 02:41:35;;;;;;;27.70;8.80;;;;;5.90;95319.00;;;;8362480;28;20669;-80
2021/12/24 02:46:21;;;;;;;30.23;8.53;;;;;5.90;95312.00;;;;8367172;28;20319;-82
2021/12/24 02:55:02;;;;;;;32.53;10.23;;;;;5.90;95316.00;;;;8365305;28;20244;-87
2021/12/24 02:59:07;;;;;;;23.30;9.10;;;;;5.90;95310.00;;;;8366733;28;20220;-86
2021/12/24 03:03:11;;;;;;;33.23;9.47;;;;;5.90;95313.00;;;;8325669;22;20790;-84
2021/12/24 03:07:14;;;;;;;32.37;10.23;;;;;5.80;95313.00;;;;8236726;28;20861;-81
2021/12/24 03:11:19;;;;;;;30.30;9.63;;;;;5.90;95312.00;;;;8238133;28;20258;-82
2021/12/24 03:15:24;;;;;;;31.47;10.70;;;;;5.90;95309.00;;;;8236868;28;20257;-81
2021/12/24 03:19:31;;;;;;;30.73;10.10;;;;;5.90;95306.00;;;;8259382;28;20232;-81
2021/12/24 03:23:38;;;;;;;41.73;11.30;;;;;5.80;95305.00;;;;8227354;28;20321;-83
2021/12/24 03:27:43;;;;;;;35.53;10.40;;;;;5.80;95306.00;;;;8248128;28;20278;-80
2021/12/24 03:31:47;;;;;;;36.90;11.23;;;;;5.80;95306.00;;;;8243684;28;20254;-81
2021/12/24 03:35:50;;;;;;;33.07;9.73;;;;;5.70;95287.00;;;;8228596;28;20360;-80
2021/12/24 03:39:54;;;;;;;30.23;10.27;;;;;5.70;95278.00;;;;8239854;28;20325;-81
2021/12/24 03:43:58;;;;;;;32.00;9.67;;;;;5.70;95287.00;;;;8241945;28;20269;-81
2021/12/24 03:48:13;;;;;;;31.53;9.20;;;;;5.70;95275.00;;;;8252015;28;20919;-81
2021/12/24 03:52:33;;;;;;;22.30;8.93;;;;;5.80;95269.00;;;;8252423;28;20258;-82
2021/12/24 03:56:38;;;;;;;28.73;10.30;;;;;5.80;95267.00;;;;8249874;28;20320;-79
2021/12/24 04:00:43;;;;;;;35.53;11.27;;;;;5.90;95274.00;;;;8225086;28;20735;-80
2021/12/24 04:04:47;;;;;;;26.03;9.23;;;;;5.90;95269.00;;;;8262394;28;20257;-79
2021/12/24 04:08:50;;;;;;;27.73;10.07;;;;;5.90;95272.00;;;;8272163;28;20746;-80
2021/12/24 04:12:53;;;;;;;32.13;9.57;;;;;5.90;95272.00;;;;8267031;28;20325;-81
2021/12/24 04:16:58;;;;;;;28.50;10.73;;;;;5.90;95262.00;;;;8273614;28;20236;-82
2021/12/24 04:25:26;;;;;;;26.50;10.13;;;;;5.90;95256.00;;;;8266736;28;20268;-83
2021/12/24 04:29:29;;;;;;;34.60;9.90;;;;;5.90;95251.00;;;;8274870;28;20329;-82
2021/12/24 04:33:37;;;;;;;28.80;9.63;;;;;5.90;95259.00;;;;8264671;28;20251;-85
2021/12/24 04:51:14;;;;;;;24.77;9.13;;;;;5.60;95244.00;;;;8273963;28;20748;-77
2021/12/24 05:04:02;;;;;;;22.27;8.20;;;;;5.50;95237.00;;;;8263287;28;20329;-83
2021/12/24 05:08:19;;;;;;;22.30;8.33;;;;;5.50;95226.00;;;;8270432;28;20254;-85
2021/12/24 05:12:22;;;;;;;26.73;8.63;;;;;5.50;95228.00;;;;8274950;28;20253;-81
2021/12/24 05:16:36;;;;;;;23.17;8.80;;;;;5.60;95233.00;;;;8269123;28;20284;-81
2021/12/24 05:25:02;;;;;;;24.43;8.37;;;;;5.60;95234.00;;;;8221293;28;20634;-79
2021/12/24 05:29:07;;;;;;;17.03;7.33;;;;;5.60;95235.00;;;;8222953;28;20615;-82
2021/12/24 05:33:13;;;;;;;15.73;7.37;;;;;5.60;95228.00;;;;8217958;28;20724;-81
2021/12/24 05:37:16;;;;;;;20.93;7.17;;;;;5.70;95226.00;;;;8217927;28;20325;-81
2021/12/24 05:41:21;;;;;;;25.10;7.43;;;;;5.70;95227.00;;;;8218473;28;20766;-80
2021/12/24 05:45:25;;;;;;;27.03;7.50;;;;;5.80;95213.00;;;;8218604;28;20289;-84
2021/12/24 05:49:28;;;;;;;24.87;7.80;;;;;5.80;95207.00;;;;8218234;28;20265;-84
2021/12/24 05:53:31;;;;;;;24.13;7.90;;;;;5.80;95208.00;;;;8218081;28;20742;-79
2021/12/24 05:57:36;;;;;;;16.70;7.17;;;;;5.90;95204.00;;;;8217768;28;20269;-81
2021/12/24 06:01:39;;;;;;;23.33;7.03;;;;;5.90;95206.00;;;;8217123;28;20266;-80
2021/12/24 06:05:43;;;;;;;16.90;6.67;;;;;5.90;95198.00;;;;8217219;28;20800;-82
2021/12/24 06:09:46;;;;;;;19.03;7.10;;;;;6.00;95204.00;;;;8217015;28;20260;-78
2021/12/24 06:13:54;;;;;;;16.10;6.37;;;;;6.10;95205.00;;;;8215815;28;21828;-76
2021/12/24 06:17:59;;;;;;;26.67;6.97;;;;;6.10;95211.00;;;;8222137;28;20961;-78
2021/12/24 06:22:02;;;;;;;17.73;6.80;;;;;6.20;95210.00;;;;8224771;28;20740;-78
2021/12/24 06:26:08;;;;;;;23.40;7.17;;;;;6.20;95223.00;;;;8215874;28;20834;-79
2021/12/24 06:30:14;;;;;;;22.60;6.90;;;;;6.20;95220.00;;;;8219599;28;20708;-76
2021/12/24 06:34:42;;;;;;;18.73;6.10;;;;;6.30;95237.00;;;;8215762;28;20289;-77
2021/12/24 06:39:10;;;;;;;19.33;6.73;;;;;6.30;95233.00;;;;8184307;28;20825;-69
2021/12/24 06:43:37;;;;;;;15.27;6.57;;;;;6.40;95228.00;;;;8217358;28;20226;-70
2021/12/24 06:48:06;;;;;;;18.37;6.90;;;;;6.40;95236.00;;;;8175426;28;20249;-71
2021/12/24 06:52:09;;;;;;;13.90;6.20;;;;;6.50;95251.00;;;;8212669;28;20322;-70
2021/12/24 06:56:37;;;;;;;16.43;6.40;;;;;6.50;95241.00;;;;8199358;28;20246;-70
2021/12/24 07:00:40;;;;;;;18.50;6.53;;;;;6.60;95250.00;;;;8223864;28;20234;-70
2021/12/24 07:05:09;;;;;;;14.87;5.87;;;;;6.60;95245.00;;;;8200460;28;20710;-71
2021/12/24 07:09:41;;;;;;;14.87;7.10;;;;;6.60;95261.00;;;;8211573;28;20246;-69
2021/12/24 07:13:44;;;;;;;14.63;6.07;;;;;6.60;95260.00;;;;8219851;28;20576;-71
2021/12/24 07:18:12;;;;;;;13.57;5.87;;;;;6.70;95273.00;;;;8199620;28;20618;-70
2021/12/24 07:22:17;;;;;;;12.20;6.03;;;;;6.70;95283.00;;;;8222013;28;20231;-70
2021/12/24 07:26:20;;;;;;;16.03;6.53;;;;;6.80;95283.00;;;;8195201;28;20270;-70
2021/12/24 07:30:24;;;;;;;12.73;6.20;;;;;6.80;95281.00;;;;8221321;28;20271;-69
2021/12/24 07:34:27;;;;;;;17.37;7.07;;;;;6.90;95283.00;;;;8217168;28;20281;-69
2021/12/24 07:38:32;;;;;;;14.67;5.90;;;;;6.90;95278.00;;;;8214211;28;20592;-70
2021/12/24 07:42:35;;;;;;;11.53;5.97;;;;;7.00;95269.00;;;;8222044;28;20265;-70
2021/12/24 07:47:04;;;;;;;10.93;5.63;;;;;7.00;95271.00;;;;8222625;28;20242;-69
2021/12/24 07:55:56;;;;;;;12.83;5.63;;;;;7.00;95268.00;;;;8220958;28;20314;-74
2021/12/24 08:00:00;;;;;;;14.33;6.37;;;;;7.10;95261.00;;;;8220644;28;20258;-75
2021/12/24 08:04:03;;;;;;;12.50;5.50;;;;;7.20;95270.00;;;;8221934;28;20659;-75
2021/12/24 08:08:31;;;;;;;14.77;5.80;;;;;7.20;95276.00;;;;8195305;28;20234;-74
2021/12/24 08:12:36;;;;;;;14.43;5.90;;;;;7.20;95280.00;;;;8217880;28;20310;-76
2021/12/24 08:17:04;;;;;;;11.57;5.27;;;;;7.20;95284.00;;;;8266157;28;20293;-74
2021/12/24 08:21:07;;;;;;;11.40;5.80;;;;;7.30;95268.00;;;;8259521;28;20313;-74
2021/12/24 08:25:10;;;;;;;11.00;6.13;;;;;7.40;95280.00;;;;8251786;28;20255;-73
2021/12/24 08:29:38;;;;;;;17.97;6.20;;;;;7.50;95271.00;;;;8228026;28;20311;-74
2021/12/24 08:33:42;;;;;;;22.23;6.47;;;;;7.60;95266.00;;;;8224237;28;20652;-74
2021/12/24 08:38:10;;;;;;;12.53;6.17;;;;;7.80;95266.00;;;;8241814;28;20245;-73
2021/12/24 08:42:13;;;;;;;12.77;5.20;;;;;7.90;95261.00;;;;8225894;28;20322;-74
2021/12/24 08:46:41;;;;;;;15.53;6.03;;;;;8.00;95267.00;;;;8251492;28;20256;-74
2021/12/24 08:50:45;;;;;;;12.03;6.23;;;;;8.00;95266.00;;;;8250641;28;20226;-81
2021/12/24 08:54:48;;;;;;;13.97;5.47;;;;;8.00;95257.00;;;;8251101;28;20306;-82
2021/12/24 08:59:15;;;;;;;13.60;5.70;;;;;8.10;95255.00;;;;8243152;28;20230;-80
2021/12/24 09:03:20;;;;;;;10.77;5.73;;;;;8.00;95263.00;;;;8248889;28;20246;-80
2021/12/24 09:07:48;;;;;;;9.23;5.87;;;;;8.00;95254.00;;;;8247733;28;20265;-81
2021/12/24 09:16:42;;;;;;;11.53;5.37;;;;;8.00;95256.00;;;;8215660;28;20242;-81
2021/12/24 09:20:47;;;;;;;10.87;5.73;;;;;8.00;95255.00;;;;8217068;28;20259;-81
2021/12/24 09:24:51;;;;;;;12.13;5.87;;;;;8.00;95249.00;;;;8217645;28;20231;-80
2021/12/24 09:29:18;;;;;;;12.53;5.90;;;;;7.90;95252.00;;;;8237881;28;20233;-81
2021/12/24 09:33:21;;;;;;;14.80;8.63;;;;;7.90;95260.00;;;;8215281;28;20255;-75
2021/12/24 09:37:26;;;;;;;27.53;14.60;;;;;8.00;95247.00;;;;8221123;28;20234;-71
2021/12/24 09:41:30;;;;;;;18.03;8.50;;;;;8.00;95250.00;;;;8210838;28;20870;-75
2021/12/24 09:45:33;;;;;;;107.17;43.10;;;;;8.00;95251.00;;;;8216588;28;20763;-75
2021/12/24 09:49:37;;;;;;;270.20;132.17;;;;;8.00;95237.00;;;;8215384;28;20668;-74
2021/12/24 09:53:42;;;;;;;77.90;33.70;;;;;8.00;95237.00;;;;8215987;28;20322;-73
2021/12/24 09:57:46;;;;;;;25.23;17.23;;;;;8.00;95232.00;;;;8216658;28;20306;-73
2021/12/24 10:01:54;;;;;;;72.80;40.90;;;;;8.00;95231.00;;;;8214267;28;20223;-73
2021/12/24 10:06:23;;;;;;;27.20;13.70;;;;;8.00;95240.00;;;;8208590;28;20246;-74
2021/12/24 10:10:29;;;;;;;123.60;58.67;;;;;8.00;95233.00;;;;8216095;28;20310;-74
2021/12/24 10:14:34;;;;;;;136.17;58.20;;;;;8.00;95229.00;;;;8209434;28;20269;-73
2021/12/24 10:18:40;;;;;;;27.10;14.73;;;;;8.10;95238.00;;;;8214970;28;20456;-73
2021/12/24 10:22:46;;;;;;;25.47;11.77;;;;;8.10;95229.00;;;;8204636;28;20690;-73
2021/12/24 10:26:55;;;;;;;16.70;12.13;;;;;8.10;95227.00;;;;8211586;28;23495;-74
2021/12/24 10:31:02;;;;;;;22.63;12.60;;;;;8.10;95235.00;;;;8211564;28;20246;-73
2021/12/24 10:35:19;;;;;;;23.33;12.33;;;;;8.10;95228.00;;;;8215530;28;20254;-74
2021/12/24 10:39:24;;;;;;;26.67;11.70;;;;;8.10;95234.00;;;;8242022;28;20262;-72
2021/12/24 10:43:30;;;;;;;66.73;32.57;;;;;8.20;95220.00;;;;8248252;28;20730;-73
2021/12/24 10:47:37;;;;;;;34.40;17.10;;;;;8.20;95216.00;;;;8246664;28;20253;-73
2021/12/24 10:51:58;;;;;;;22.13;12.40;;;;;8.10;95214.00;;;;8247955;28;20249;-73
2021/12/24 10:56:01;;;;;;;18.13;10.40;;;;;8.20;95207.00;;;;8246042;28;20223;-72
2021/12/24 11:00:16;;;;;;;24.40;15.30;;;;;8.10;95211.00;;;;8214570;28;20259;-72
2021/12/24 11:04:35;;;;;;;20.87;10.27;;;;;8.10;95212.00;;;;8213131;28;20246;-72
2021/12/24 11:08:39;;;;;;;17.83;9.10;;;;;8.10;95217.00;;;;8249799;28;20219;-72
2021/12/24 11:12:44;;;;;;;23.83;9.87;;;;;8.10;95219.00;;;;8250586;28;20932;-73
2021/12/24 11:16:49;;;;;;;13.30;7.17;;;;;8.10;95234.00;;;;8231055;28;20268;-73
2021/12/24 11:20:55;;;;;;;16.07;8.53;;;;;8.00;95222.00;;;;8218300;28;20310;-72
2021/12/24 11:24:58;;;;;;;18.03;9.93;;;;;8.00;95215.00;;;;8223658;28;20326;-73
2021/12/24 11:29:02;;;;;;;18.20;8.20;;;;;8.10;95214.00;;;;8215757;28;20621;-73
2021/12/24 11:33:06;;;;;;;11.73;6.93;;;;;8.10;95218.00;;;;8252052;28;20393;-72
2021/12/24 11:37:10;;;;;;;14.30;6.90;;;;;8.10;95218.00;;;;8253232;28;20561;-76
2021/12/24 11:41:15;;;;;;;13.27;7.00;;;;;8.10;95218.00;;;;8221427;28;20306;-76
2021/12/24 11:45:22;;;;;;;13.97;6.50;;;;;8.10;95208.00;;;;8224522;28;20378;-75
2021/12/24 11:49:27;;;;;;;18.53;6.97;;;;;8.10;95205.00;;;;8242044;28;20673;-77
2021/12/24 11:53:33;;;;;;;11.93;6.73;;;;;8.20;95202.00;;;;8220789;28;20319;-76
2021/12/24 11:58:04;;;;;;;11.53;6.83;;;;;8.20;95208.00;;;;8222790;28;20246;-77
2021/12/24 12:02:07;;;;;;;15.93;7.53;;;;;8.30;95201.00;;;;8217622;28;20245;-76
2021/12/24 12:06:34;;;;;;;14.27;6.87;;;;;8.40;95190.00;;;;8218260;28;20313;-77
2021/12/24 12:10:51;;;;;;;14.63;6.90;;;;;8.40;95188.00;;;;8217658;28;20318;-75
2021/12/24 12:15:30;;;;;;;14.00;6.40;;;;;8.40;95193.00;;;;8219727;28;20266;-77
2021/12/24 12:19:45;;;;;;;16.47;6.20;;;;;8.50;95190.00;;;;8247927;28;20247;-77
2021/12/24 12:24:57;;;;;;;12.43;6.77;;;;;8.40;95183.00;;;;8248645;28;20329;-76
2021/12/24 12:29:21;;;;;;;17.30;6.17;;;;;8.40;95180.00;;;;8245546;28;20273;-77
2021/12/24 12:33:34;;;;;;;14.10;6.17;;;;;8.30;95179.00;;;;8223763;28;20335;-78
2021/12/24 12:37:47;;;;;;;17.93;6.40;;;;;8.30;95168.00;;;;8216113;28;20645;-77
2021/12/24 12:41:52;;;;;;;11.70;6.63;;;;;8.30;95170.00;;;;8218054;28;21045;-77
2021/12/24 12:46:04;;;;;;;9.43;5.83;;;;;8.40;95157.00;;;;8273979;28;20693;-76
2021/12/24 12:50:15;;;;;;;20.23;6.90;;;;;8.40;95149.00;;;;8263410;28;20322;-76
2021/12/24 12:54:37;;;;;;;18.83;6.57;;;;;8.30;95144.00;;;;8248983;28;20325;-77
2021/12/24 12:59:08;;;;;;;13.23;6.83;;;;;8.30;95150.00;;;;8258199;28;20244;-76
2021/12/24 13:03:13;;;;;;;19.67;6.93;;;;;8.30;95153.00;;;;8249936;28;20318;-75
2021/12/24 13:07:40;;;;;;;14.17;7.33;;;;;8.40;95149.00;;;;8245350;28;20860;-76
2021/12/24 13:11:46;;;;;;;15.67;6.87;;;;;8.30;95148.00;;;;8244989;28;20258;-77
2021/12/24 13:15:51;;;;;;;13.97;6.80;;;;;8.40;95147.00;;;;8249929;28;20280;-79
2021/12/24 13:20:11;;;;;;;18.67;6.70;;;;;8.40;95142.00;;;;8246413;28;20310;-78
2021/12/24 13:24:16;;;;;;;11.87;6.70;;;;;8.40;95142.00;;;;8243470;28;20234;-78
2021/12/24 13:28:59;;;;;;;13.07;6.30;;;;;8.30;95131.00;;;;8249065;28;20289;-77
2021/12/24 13:33:07;;;;;;;12.53;6.30;;;;;8.30;95131.00;;;;8247296;28;20330;-76
2021/12/24 13:37:34;;;;;;;18.43;7.43;;;;;8.20;95147.00;;;;8220560;28;20246;-75
2021/12/24 13:41:38;;;;;;;14.23;6.93;;;;;8.20;95140.00;;;;8210500;28;20339;-76
2021/12/24 13:45:44;;;;;;;12.80;6.80;;;;;8.10;95145.00;;;;8215745;28;20234;-78
2021/12/24 13:50:27;;;;;;;19.87;7.23;;;;;8.10;95146.00;;;;8247715;28;20747;-78
2021/12/24 13:55:19;;;;;;;20.07;7.30;;;;;8.00;95150.00;;;;8215947;28;20251;-79
2021/12/24 13:59:51;;;;;;;15.80;6.83;;;;;7.90;95147.00;;;;8229112;28;20664;-79
2021/12/24 14:03:55;;;;;;;19.13;7.53;;;;;7.90;95152.00;;;;8246072;28;20242;-79
2021/12/24 14:08:25;;;;;;;20.27;7.77;;;;;7.90;95144.00;;;;8243180;28;20261;-78
2021/12/24 14:12:29;;;;;;;22.40;7.67;;;;;7.80;95146.00;;;;8234024;28;20251;-79
2021/12/24 14:17:19;;;;;;;24.23;8.90;;;;;7.70;95144.00;;;;8225435;28;20230;-78
2021/12/24 14:25:56;;;;;;;24.80;7.97;;;;;7.60;95148.00;;;;8217545;28;20257;-79
2021/12/24 14:30:01;;;;;;;20.00;8.70;;;;;7.70;95137.00;;;;8228544;28;20644;-78
2021/12/24 14:34:04;;;;;;;24.60;8.53;;;;;7.70;95153.00;;;;8208861;28;20306;-80
2021/12/24 14:38:16;;;;;;;22.80;9.27;;;;;7.70;95147.00;;;;8218788;28;20260;-79
2021/12/24 14:42:25;;;;;;;26.73;8.83;;;;;7.70;95151.00;;;;8221199;28;20709;-78
2021/12/24 14:46:28;;;;;;;27.67;9.77;;;;;7.70;95149.00;;;;8219713;28;20617;-79
2021/12/24 14:50:34;;;;;;;23.30;9.60;;;;;7.70;95144.00;;;;8215836;28;20231;-78
2021/12/24 14:55:16;;;;;;;22.07;8.40;;;;;7.60;95144.00;;;;8219225;28;20322;-79
2021/12/24 14:59:21;;;;;;;26.57;10.00;;;;;7.70;95142.00;;;;8218670;28;20993;-78
2021/12/24 15:03:30;;;;;;;23.90;8.43;;;;;7.70;95151.00;;;;8217766;28;20661;-78
2021/12/24 15:07:35;;;;;;;23.60;9.77;;;;;7.70;95144.00;;;;8214630;28;20310;-80
2021/12/24 15:11:38;;;;;;;22.20;8.97;;;;;7.70;95144.00;;;;8217621;28;20234;-81
2021/12/24 15:15:50;;;;;;;20.53;8.90;;;;;7.80;95143.00;;;;8221432;28;20227;-80
2021/12/24 15:19:53;;;;;;;19.80;8.47;;;;;7.80;95135.00;;;;8216222;28;20331;-79
2021/12/24 15:23:58;;;;;;;20.67;8.23;;;;;7.80;95142.00;;;;8218547;28;20247;-77
2021/12/24 15:28:07;;;;;;;18.60;7.27;;;;;7.80;95128.00;;;;8228144;28;20721;-77
2021/12/24 15:32:12;;;;;;;20.57;7.77;;;;;7.70;95133.00;;;;8218148;28;20353;-79
2021/12/24 15:36:16;;;;;;;18.27;7.83;;;;;7.60;95131.00;;;;8213252;28;20577;-77
2021/12/24 15:40:19;;;;;;;20.80;8.17;;;;;7.60;95133.00;;;;8239980;28;20244;-78
2021/12/24 15:44:46;;;;;;;18.30;7.77;;;;;7.60;95137.00;;;;8255737;28;20313;-77
2021/12/24 15:48:50;;;;;;;21.90;8.10;;;;;7.50;95137.00;;;;8259694;28;20229;-77
2021/12/24 15:52:54;;;;;;;24.57;8.93;;;;;7.50;95143.00;;;;8291465;28;20317;-77
2021/12/24 15:56:57;;;;;;;20.80;8.27;;;;;7.60;95142.00;;;;8294933;28;20316;-76
2021/12/24 16:01:01;;;;;;;26.20;8.83;;;;;7.60;95144.00;;;;8289609;28;20866;-76
2021/12/24 16:05:06;;;;;;;20.17;8.13;;;;;7.60;95146.00;;;;8291574;28;20237;-76
2021/12/24 16:09:09;;;;;;;18.50;7.50;;;;;7.60;95139.00;;;;8297034;28;20276;-76
2021/12/24 16:13:14;;;;;;;22.40;8.77;;;;;7.60;95142.00;;;;8292279;28;20233;-75
2021/12/24 16:17:17;;;;;;;21.13;8.77;;;;;7.70;95157.00;;;;8298684;28;20232;-75
2021/12/24 16:21:22;;;;;;;25.80;9.33;;;;;7.70;95145.00;;;;8294392;28;21789;-75
2021/12/24 16:25:25;;;;;;;23.50;8.47;;;;;7.70;95151.00;;;;8298121;28;20319;-75
2021/12/24 16:29:48;;;;;;;23.97;8.77;;;;;7.70;95150.00;;;;8303074;28;20261;-76
2021/12/24 16:33:52;;;;;;;24.57;9.07;;;;;7.80;95150.00;;;;8291810;28;20319;-75
2021/12/24 16:37:57;;;;;;;21.90;8.83;;;;;7.70;95139.00;;;;8299256;28;20257;-76
2021/12/24 16:42:00;;;;;;;23.87;9.20;;;;;7.70;95141.00;;;;8299083;28;20327;-76
2021/12/24 16:46:04;;;;;;;23.17;9.03;;;;;7.70;95142.00;;;;8292548;28;20690;-76
2021/12/24 16:50:08;;;;;;;24.63;9.37;;;;;7.70;95150.00;;;;8301621;28;20244;-77
2021/12/24 16:54:13;;;;;;;28.73;9.87;;;;;7.70;95144.00;;;;8294579;28;20229;-76
2021/12/24 16:58:17;;;;;;;21.17;8.93;;;;;7.70;95143.00;;;;8295132;28;20755;-76
2021/12/24 17:02:20;;;;;;;26.00;9.50;;;;;7.70;95133.00;;;;8298394;28;20249;-76
2021/12/24 17:06:24;;;;;;;25.67;9.10;;;;;7.70;95136.00;;;;8284050;28;20300;-76
2021/12/24 17:10:28;;;;;;;26.27;9.30;;;;;7.70;95135.00;;;;8293362;28;20268;-76
2021/12/24 17:14:36;;;;;;;30.63;9.57;;;;;7.60;95125.00;;;;8295015;28;20310;-76
2021/12/24 17:18:40;;;;;;;29.73;9.97;;;;;7.60;95125.00;;;;8295845;28;27486;-76
2021/12/24 17:22:44;;;;;;;33.60;11.07;;;;;7.50;95131.00;;;;8293244;28;20240;-78
2021/12/24 17:26:49;;;;;;;26.23;10.03;;;;;7.50;95133.00;;;;8287941;28;20237;-75
2021/12/24 17:30:53;;;;;;;44.57;11.80;;;;;7.50;95130.00;;;;8292573;28;21000;-80
2021/12/24 17:34:56;;;;;;;32.37;10.93;;;;;7.50;95131.00;;;;8296443;28;20774;-79
2021/12/24 17:38:59;;;;;;;27.77;10.70;;;;;7.50;95135.00;;;;8293651;28;20961;-76
2021/12/24 17:43:04;;;;;;;31.30;9.93;;;;;7.50;95123.00;;;;8293538;28;20244;-75
2021/12/24 17:47:08;;;;;;;26.60;9.90;;;;;7.50;95123.00;;;;8299277;28;20248;-75
2021/12/24 17:51:13;;;;;;;31.93;11.30;;;;;7.50;95120.00;;;;8297525;28;20316;-76
2021/12/24 17:55:16;;;;;;;31.57;11.07;;;;;7.60;95126.00;;;;8277075;28;20321;-77
2021/12/24 17:59:21;;;;;;;28.77;10.43;;;;;7.60;95128.00;;;;8292404;28;20779;-76
2021/12/24 18:03:24;;;;;;;28.83;10.53;;;;;7.70;95139.00;;;;8291178;28;20249;-76
2021/12/24 18:07:27;;;;;;;32.63;10.67;;;;;7.70;95126.00;;;;8296894;28;20332;-75
2021/12/24 18:11:30;;;;;;;28.40;10.47;;;;;7.70;95127.00;;;;8290602;28;20349;-75
2021/12/24 18:15:35;;;;;;;29.97;12.10;;;;;7.70;95118.00;;;;8310179;28;20233;-73
2021/12/24 18:19:38;;;;;;;29.43;10.40;;;;;7.70;95115.00;;;;8297465;28;20255;-74
2021/12/24 18:23:42;;;;;;;22.33;8.80;;;;;7.70;95116.00;;;;8291754;28;20224;-74
2021/12/24 18:27:48;;;;;;;32.20;12.00;;;;;7.60;95113.00;;;;8290961;28;20249;-73
2021/12/24 18:31:53;;;;;;;33.13;12.50;;;;;7.70;95116.00;;;;8287557;28;20225;-73
2021/12/24 18:35:58;;;;;;;31.97;11.07;;;;;7.70;95116.00;;;;8285443;28;20242;-74
2021/12/24 18:40:01;;;;;;;29.60;10.77;;;;;7.70;95114.00;;;;8293220;28;20970;-74
2021/12/24 18:44:05;;;;;;;29.33;10.23;;;;;7.70;95110.00;;;;8304359;28;20246;-74
2021/12/24 18:48:14;;;;;;;27.30;9.73;;;;;7.70;95104.00;;;;8269457;28;20317;-74
2021/12/24 18:52:18;;;;;;;24.00;8.97;;;;;7.80;95105.00;;;;8286763;28;20443;-74
2021/12/24 18:56:22;;;;;;;25.97;9.87;;;;;7.90;95107.00;;;;8287285;28;20305;-74
2021/12/24 19:00:28;;;;;;;26.33;9.17;;;;;7.90;95106.00;;;;8286549;28;20328;-74
2021/12/24 19:04:33;;;;;;;26.93;10.03;;;;;7.90;95107.00;;;;8286730;28;20598;-75
2021/12/24 19:08:36;;;;;;;26.87;9.63;;;;;7.90;95101.00;;;;8261648;28;20309;-74
2021/12/24 19:12:40;;;;;;;25.30;10.10;;;;;8.00;95113.00;;;;8284109;28;20273;-74
2021/12/24 19:16:43;;;;;;;26.33;10.60;;;;;7.90;95108.00;;;;8294404;28;20314;-75
2021/12/24 19:20:53;;;;;;;26.07;11.10;;;;;7.90;95112.00;;;;8287772;28;20321;-75
2021/12/24 19:24:56;;;;;;;24.53;8.20;;;;;7.80;95109.00;;;;8280106;28;20616;-74
2021/12/24 19:29:00;;;;;;;27.53;9.33;;;;;7.80;95103.00;;;;8286101;28;20312;-75
2021/12/24 19:33:04;;;;;;;21.27;8.83;;;;;7.80;95108.00;;;;8284066;28;20249;-76
2021/12/24 19:37:10;;;;;;;19.20;7.83;;;;;7.80;95108.00;;;;8285512;28;20312;-76
2021/12/24 19:41:13;;;;;;;21.73;8.20;;;;;7.80;95113.00;;;;8284906;28;20234;-75
2021/12/24 19:45:17;;;;;;;15.97;6.67;;;;;7.90;95100.00;;;;8286118;28;20253;-77
2021/12/24 19:49:20;;;;;;;14.33;5.83;;;;;7.90;95105.00;;;;8284205;28;20236;-76
2021/12/24 19:53:25;;;;;;;14.87;6.43;;;;;7.80;95107.00;;;;8280562;28;20309;-76
2021/12/24 19:57:28;;;;;;;14.17;6.10;;;;;7.80;95115.00;;;;8287223;28;20256;-75
2021/12/24 20:01:32;;;;;;;15.00;6.23;;;;;7.90;95102.00;;;;8284017;28;20268;-75
2021/12/24 20:05:35;;;;;;;16.00;7.07;;;;;7.80;95105.00;;;;8284571;28;20959;-75
2021/12/24 20:09:40;;;;;;;17.80;7.23;;;;;7.80;95104.00;;;;8285909;28;20873;-76
2021/12/24 20:13:46;;;;;;;27.70;14.90;;;;;7.80;95107.00;;;;8286976;28;20256;-76
2021/12/24 20:17:51;;;;;;;30.30;12.07;;;;;7.70;95103.00;;;;8289049;28;20941;-76
2021/12/24 20:21:55;;;;;;;29.97;9.70;;;;;7.80;95100.00;;;;8281824;28;20329;-75
2021/12/24 20:25:59;;;;;;;47.50;19.50;;;;;7.80;95102.00;;;;8280211;28;20244;-74
2021/12/24 20:30:05;;;;;;;39.47;11.97;;;;;7.70;95107.00;;;;8258438;28;20318;-75
2021/12/24 20:34:08;;;;;;;26.57;9.83;;;;;7.70;95105.00;;;;8246641;28;20247;-74
2021/12/24 20:38:12;;;;;;;26.97;8.57;;;;;7.70;95109.00;;;;8248521;28;20231;-74
2021/12/24 20:42:16;;;;;;;31.07;11.00;;;;;7.70;95112.00;;;;8248768;28;20321;-74
2021/12/24 20:46:20;;;;;;;29.07;11.77;;;;;7.70;95103.00;;;;8246958;28;20596;-74
2021/12/24 20:50:26;;;;;;;46.63;19.17;;;;;7.60;95108.00;;;;8248241;28;20230;-74
2021/12/24 20:54:29;;;;;;;36.07;12.03;;;;;7.60;95097.00;;;;8249993;28;20226;-75
2021/12/24 20:58:34;;;;;;;31.83;12.37;;;;;7.60;95088.00;;;;8248327;28;20735;-74
2021/12/24 21:02:38;;;;;;;46.27;18.93;;;;;7.60;95086.00;;;;8246741;28;20280;-75
2021/12/24 21:06:42;;;;;;;35.20;11.60;;;;;7.50;95078.00;;;;8239503;28;20262;-75
2021/12/24 21:10:46;;;;;;;30.90;10.60;;;;;7.50;95072.00;;;;8247536;28;20660;-73
2021/12/24 21:14:51;;;;;;;39.83;12.60;;;;;7.50;95075.00;;;;8244678;28;20695;-75
2021/12/24 21:18:54;;;;;;;43.93;14.20;;;;;7.50;95078.00;;;;8248742;28;20305;-73
2021/12/24 21:22:58;;;;;;;30.37;12.50;;;;;7.50;95072.00;;;;8243936;28;20322;-75
2021/12/24 21:27:01;;;;;;;26.73;9.77;;;;;7.40;95073.00;;;;8245660;28;20321;-74
2021/12/24 21:31:05;;;;;;;35.43;9.70;;;;;7.50;95075.00;;;;8247075;28;20789;-74
2021/12/24 21:35:09;;;;;;;40.47;9.43;;;;;7.40;95073.00;;;;8245552;28;20238;-74
2021/12/24 21:39:13;;;;;;;26.73;9.37;;;;;7.40;95065.00;;;;8248044;28;20246;-74
2021/12/24 21:43:16;;;;;;;26.87;9.77;;;;;7.50;95068.00;;;;8245539;28;20257;-74
2021/12/24 21:47:21;;;;;;;32.20;10.07;;;;;7.50;95070.00;;;;8245664;28;20585;-75
2021/12/24 21:51:25;;;;;;;30.17;9.70;;;;;7.50;95076.00;;;;8244326;28;20226;-75
2021/12/24 21:55:28;;;;;;;30.40;8.87;;;;;7.50;95065.00;;;;8248238;28;20254;-75
2021/12/24 21:59:32;;;;;;;24.60;8.40;;;;;7.50;95067.00;;;;8245740;28;20254;-75
2021/12/24 22:03:41;;;;;;;26.30;8.77;;;;;7.50;95071.00;;;;8245402;28;20517;-74
2021/12/24 22:12:07;;;;;;;20.60;8.67;;;;;7.50;95074.00;;;;8273011;28;20252;-75